createdAt,value
2022-09-28T00:00:58.013Z,18.23
2022-09-28T00:03:27.961Z,19.23
2022-09-28T00:06:01.775Z,16.63
2022-09-28T00:08:29.153Z,17.47
2022-09-28T00:10:56.821Z,17.53
2022-09-28T00:13:24.525Z,18.33
2022-09-28T00:16:00.280Z,17.50
2022-09-28T00:18:29.129Z,17.53
2022-09-28T00:21:05.565Z,16.73
2022-09-28T00:23:33.477Z,17.10
2022-09-28T00:26:04.302Z,18.20
2022-09-28T00:28:31.921Z,17.07
2022-09-28T00:30:59.292Z,17.33
2022-09-28T00:33:26.705Z,18.07
2022-09-28T00:35:58.942Z,18.30
2022-09-28T00:38:30.108Z,18.00
2022-09-28T00:40:57.657Z,17.30
2022-09-28T00:43:25.533Z,17.60
2022-09-28T00:45:58.035Z,16.77
2022-09-28T00:48:29.032Z,17.07
2022-09-28T00:50:58.566Z,17.70
2022-09-28T00:53:27.864Z,18.00
2022-09-28T00:55:56.786Z,17.40
2022-09-28T00:58:27.401Z,15.83
2022-09-28T01:00:56.379Z,15.77
2022-09-28T01:03:23.931Z,15.33
2022-09-28T01:05:51.832Z,15.20
2022-09-28T01:08:21.984Z,15.10
2022-09-28T01:10:50.649Z,15.87
2022-09-28T01:13:20.934Z,14.93
2022-09-28T01:15:59.435Z,24.33
2022-09-28T01:18:32.558Z,15.87
2022-09-28T01:21:02.366Z,16.07
2022-09-28T01:23:44.557Z,15.87
2022-09-28T01:26:45.921Z,14.83
2022-09-28T01:29:18.793Z,15.70
2022-09-28T01:31:49.786Z,15.27
2022-09-28T01:34:20.973Z,14.63
2022-09-28T01:36:50.796Z,16.20
2022-09-28T01:39:20.985Z,16.40
2022-09-28T01:41:53.089Z,16.53
2022-09-28T01:44:22.162Z,15.73
2022-09-28T01:46:50.356Z,16.00
2022-09-28T01:49:19.968Z,16.43
2022-09-28T01:51:52.004Z,16.07
2022-09-28T01:54:23.354Z,16.83
2022-09-28T01:56:53.896Z,14.50
2022-09-28T01:59:24.142Z,14.57
2022-09-28T02:01:54.738Z,15.30
2022-09-28T02:04:24.789Z,17.27
2022-09-28T02:06:55.320Z,15.03
2022-09-28T02:09:28.463Z,16.00
2022-09-28T02:12:02.849Z,16.93
2022-09-28T02:14:31.572Z,16.27
2022-09-28T02:17:01.898Z,16.13
2022-09-28T02:19:32.738Z,15.40
2022-09-28T02:22:04.238Z,15.40
2022-09-28T02:24:37.914Z,14.53
2022-09-28T02:27:10.953Z,15.40
2022-09-28T02:29:38.299Z,15.77
2022-09-28T02:32:05.865Z,14.57
2022-09-28T02:34:33.969Z,15.07
2022-09-28T02:37:02.184Z,15.00
2022-09-28T02:39:30.056Z,15.03
2022-09-28T02:42:04.059Z,15.10
2022-09-28T02:44:44.668Z,15.57
2022-09-28T02:47:21.757Z,14.07
2022-09-28T02:49:52.578Z,14.60
2022-09-28T02:52:32.792Z,15.03
2022-09-28T02:55:13.731Z,15.17
2022-09-28T02:57:49.001Z,15.13
2022-09-28T03:00:20.124Z,14.77
2022-09-28T03:02:59.236Z,14.73
2022-09-28T03:05:32.719Z,15.13
2022-09-28T03:08:02.142Z,15.00
2022-09-28T03:10:35.860Z,15.43
2022-09-28T03:13:04.439Z,14.37
2022-09-28T03:15:34.641Z,14.00
2022-09-28T03:18:02.028Z,13.27
2022-09-28T03:20:31.189Z,14.10
2022-09-28T03:25:46.053Z,14.40
2022-09-28T03:28:13.428Z,13.47
2022-09-28T03:30:43.397Z,14.30
2022-09-28T03:33:11.010Z,14.33
2022-09-28T03:35:39.089Z,14.83
2022-09-28T03:38:06.549Z,14.67
2022-09-28T03:40:37.906Z,13.97
2022-09-28T03:43:05.296Z,14.23
2022-09-28T03:45:32.855Z,14.70
2022-09-28T03:48:01.902Z,15.20
2022-09-28T03:50:29.593Z,15.93
2022-09-28T03:52:56.937Z,15.47
2022-09-28T03:55:24.326Z,16.37
2022-09-28T03:57:55.577Z,16.40
2022-09-28T04:00:23.133Z,17.23
2022-09-28T04:02:50.735Z,18.83
2022-09-28T04:05:19.412Z,18.87
2022-09-28T04:07:48.314Z,20.40
2022-09-28T04:10:15.850Z,22.20
2022-09-28T04:12:43.262Z,24.53
2022-09-28T04:15:11.438Z,26.03
2022-09-28T04:17:40.360Z,32.47
2022-09-28T04:20:14.114Z,31.73
2022-09-28T04:22:49.465Z,39.03
2022-09-28T04:25:17.378Z,35.43
2022-09-28T04:28:07.446Z,35.63
2022-09-28T04:30:34.985Z,33.63
2022-09-28T04:33:02.432Z,37.17
2022-09-28T04:35:31.058Z,36.43
2022-09-28T04:37:59.811Z,41.40
2022-09-28T04:40:27.619Z,35.87
2022-09-28T04:42:55.925Z,37.77
2022-09-28T04:45:25.908Z,34.63
2022-09-28T04:47:55.306Z,39.17
2022-09-28T04:50:38.201Z,35.60
2022-09-28T04:53:22.643Z,37.37
2022-09-28T04:55:57.675Z,35.77
2022-09-28T04:58:25.213Z,38.70
2022-09-28T05:00:54.139Z,39.40
2022-09-28T05:03:42.081Z,43.50
2022-09-28T05:06:22.893Z,37.50
2022-09-28T05:08:58.139Z,37.40
2022-09-28T05:11:25.570Z,36.97
2022-09-28T05:13:52.940Z,34.83
2022-09-28T05:16:20.885Z,36.70
2022-09-28T05:19:08.233Z,42.77
2022-09-28T05:21:35.561Z,41.13
2022-09-28T05:24:07.373Z,44.10
2022-09-28T05:26:36.669Z,41.57
2022-09-28T05:29:04.994Z,45.17
2022-09-28T05:32:02.129Z,39.43
2022-09-28T05:34:36.628Z,42.60
2022-09-28T05:37:04.089Z,43.33
2022-09-28T05:39:32.957Z,43.53
2022-09-28T05:42:00.321Z,47.17
2022-09-28T05:44:27.733Z,49.90
2022-09-28T05:46:55.653Z,52.37
2022-09-28T05:49:24.198Z,51.40
2022-09-28T05:51:51.526Z,47.63
2022-09-28T05:54:18.985Z,43.10
2022-09-28T05:56:48.837Z,45.97
2022-09-28T05:59:17.263Z,44.53
2022-09-28T06:01:44.680Z,55.10
2022-09-28T06:04:12.787Z,48.53
2022-09-28T06:06:42.602Z,45.10
2022-09-28T06:09:13.157Z,55.67
2022-09-28T06:12:00.245Z,46.77
2022-09-28T06:14:35.766Z,41.93
2022-09-28T06:17:03.177Z,51.33
2022-09-28T06:19:30.709Z,49.33
2022-09-28T06:22:08.657Z,44.73
2022-09-28T06:24:44.364Z,44.27
2022-09-28T06:27:13.060Z,45.27
2022-09-28T06:29:40.409Z,47.60
2022-09-28T06:32:08.301Z,43.93
2022-09-28T06:34:37.853Z,43.33
2022-09-28T06:37:05.237Z,38.97
2022-09-28T06:39:33.212Z,40.27
2022-09-28T06:42:04.346Z,39.20
2022-09-28T06:44:52.989Z,41.63
2022-09-28T06:47:39.071Z,41.80
2022-09-28T06:50:22.182Z,41.50
2022-09-28T06:52:54.897Z,48.10
2022-09-28T06:55:48.979Z,44.57
2022-09-28T06:58:19.444Z,40.90
2022-09-28T07:00:48.841Z,39.93
2022-09-28T07:03:17.806Z,42.97
2022-09-28T07:06:20.565Z,39.53
2022-09-28T07:09:29.841Z,40.60
2022-09-28T07:12:18.110Z,39.63
2022-09-28T07:14:59.017Z,42.67
2022-09-28T07:17:30.063Z,38.43
2022-09-28T07:20:10.518Z,36.93
2022-09-28T07:22:45.078Z,38.50
2022-09-28T07:25:18.410Z,36.47
2022-09-28T07:28:09.369Z,33.03
2022-09-28T07:30:51.111Z,38.23
2022-09-28T07:33:39.741Z,32.57
2022-09-28T07:36:23.601Z,34.30
2022-09-28T07:38:53.989Z,35.70
2022-09-28T07:41:32.094Z,35.60
2022-09-28T07:44:05.351Z,37.43
2022-09-28T07:46:34.242Z,37.03
2022-09-28T07:49:11.356Z,39.27
2022-09-28T07:52:02.329Z,36.87
2022-09-28T07:54:30.173Z,36.53
2022-09-28T07:57:25.639Z,36.40
2022-09-28T08:00:16.779Z,36.07
2022-09-28T08:02:48.207Z,32.43
2022-09-28T08:05:26.957Z,35.03
2022-09-28T08:07:57.602Z,30.87
2022-09-28T08:10:25.081Z,30.10
2022-09-28T08:13:26.890Z,29.57
2022-09-28T08:16:16.102Z,27.43
2022-09-28T08:19:07.566Z,28.60
2022-09-28T08:21:47.215Z,28.40
2022-09-28T08:24:16.398Z,30.53
2022-09-28T08:26:44.638Z,30.60
2022-09-28T08:29:15.201Z,29.37
2022-09-28T08:32:01.577Z,27.50
2022-09-28T08:34:35.973Z,28.23
2022-09-28T08:37:26.393Z,28.37
2022-09-28T08:40:17.481Z,28.97
2022-09-28T08:43:25.557Z,28.40
2022-09-28T08:46:07.913Z,31.50
2022-09-28T08:49:20.666Z,30.03
2022-09-28T08:52:07.072Z,29.90
2022-09-28T08:54:50.478Z,30.50
2022-09-28T08:57:28.745Z,29.97
2022-09-28T08:59:58.385Z,30.37
2022-09-28T09:02:33.208Z,29.10
2022-09-28T09:05:21.964Z,27.57
2022-09-28T09:08:13.890Z,27.57
2022-09-28T09:10:51.674Z,27.33
2022-09-28T09:13:56.273Z,27.57
2022-09-28T09:16:33.908Z,27.33
2022-09-28T09:19:30.406Z,26.27
2022-09-28T09:22:17.820Z,26.00
2022-09-28T09:24:50.689Z,25.67
2022-09-28T09:27:41.934Z,25.20
2022-09-28T09:30:11.793Z,25.67
2022-09-28T09:32:49.369Z,24.70
2022-09-28T09:35:33.215Z,25.60
2022-09-28T09:38:36.564Z,24.77
2022-09-28T09:41:30.329Z,25.03
2022-09-28T09:44:29.529Z,24.67
2022-09-28T09:47:10.722Z,24.97
2022-09-28T09:49:49.766Z,25.87
2022-09-28T09:53:12.313Z,26.63
2022-09-28T09:56:53.754Z,25.67
2022-09-28T10:00:35.601Z,26.20
2022-09-28T10:04:16.865Z,25.60
2022-09-28T10:07:04.897Z,23.90
2022-09-28T10:09:37.905Z,24.27
2022-09-28T10:12:23.626Z,24.73
2022-09-28T10:14:52.345Z,24.30
2022-09-28T10:17:26.687Z,24.47
2022-09-28T10:20:13.714Z,24.30
2022-09-28T10:23:25.325Z,24.67
2022-09-28T10:25:55.246Z,24.70
2022-09-28T10:28:26.628Z,24.97
2022-09-28T10:30:54.129Z,25.77
2022-09-28T10:33:30.281Z,25.33
2022-09-28T10:35:57.778Z,25.43
2022-09-28T10:38:26.893Z,26.50
2022-09-28T10:41:10.813Z,26.00
2022-09-28T10:44:05.918Z,25.63
2022-09-28T10:47:34.025Z,25.47
2022-09-28T10:51:15.140Z,25.90
2022-09-28T10:54:56.306Z,25.20
2022-09-28T10:58:37.973Z,25.60
2022-09-28T11:02:19.326Z,26.23
2022-09-28T11:06:00.966Z,25.60
2022-09-28T11:09:45.576Z,26.40
2022-09-28T11:13:27.858Z,25.77
2022-09-28T11:17:09.017Z,24.30
2022-09-28T11:20:51.622Z,23.90
2022-09-28T11:24:33.405Z,23.90
2022-09-28T11:28:14.637Z,22.53
2022-09-28T11:31:55.584Z,22.30
2022-09-28T11:35:37.123Z,21.50
2022-09-28T11:39:19.044Z,21.43
2022-09-28T11:43:00.651Z,20.67
2022-09-28T11:46:41.979Z,20.80
2022-09-28T11:50:24.534Z,20.93
2022-09-28T11:53:21.086Z,21.90
2022-09-28T11:55:54.090Z,21.00
2022-09-28T11:58:27.140Z,21.30
2022-09-28T12:00:58.436Z,20.97
2022-09-28T12:03:40.277Z,21.87
2022-09-28T12:06:11.789Z,21.40
2022-09-28T12:08:42.290Z,21.60
2022-09-28T12:11:12.370Z,22.27
2022-09-28T12:14:19.973Z,20.73
2022-09-28T12:17:05.860Z,21.33
2022-09-28T12:19:38.588Z,20.43
2022-09-28T12:22:12.081Z,20.60
2022-09-28T12:24:43.449Z,20.90
2022-09-28T12:27:15.225Z,21.00
2022-09-28T12:29:47.313Z,21.13
2022-09-28T12:32:29.445Z,22.13
2022-09-28T12:34:57.001Z,21.60
2022-09-28T12:37:36.745Z,21.73
2022-09-28T12:40:27.319Z,21.40
2022-09-28T12:43:20.023Z,22.90
2022-09-28T12:46:11.549Z,25.47
2022-09-28T12:49:40.965Z,27.83
2022-09-28T12:51:49.115Z,26.57
2022-09-28T12:54:31.506Z,25.40
2022-09-28T12:57:07.934Z,23.83
2022-09-28T12:59:39.478Z,24.53
2022-09-28T13:02:36.772Z,24.00
2022-09-28T13:05:17.418Z,22.83
2022-09-28T13:07:49.870Z,22.83
2022-09-28T13:10:21.699Z,22.07
2022-09-28T13:13:03.126Z,22.23
2022-09-28T13:15:37.653Z,22.40
2022-09-28T13:18:10.428Z,23.00
2022-09-28T13:20:48.411Z,24.30
2022-09-28T13:23:19.698Z,25.20
2022-09-28T13:25:51.961Z,25.77
2022-09-28T13:28:26.202Z,25.70
2022-09-28T13:30:56.188Z,26.13
2022-09-28T13:33:30.926Z,25.73
2022-09-28T13:35:58.334Z,26.23
2022-09-28T13:38:49.392Z,27.47
2022-09-28T13:41:19.551Z,27.20
2022-09-28T13:44:16.385Z,26.37
2022-09-28T13:46:50.385Z,25.87
2022-09-28T13:49:23.886Z,26.00
2022-09-28T13:54:57.491Z,25.90
2022-09-28T13:57:28.814Z,27.00
2022-09-28T14:00:10.355Z,26.47
2022-09-28T14:02:43.832Z,26.10
2022-09-28T14:05:41.568Z,25.90
2022-09-28T14:08:28.320Z,25.60
2022-09-28T14:10:56.605Z,26.80
2022-09-28T14:14:00.489Z,27.17
2022-09-28T14:16:31.770Z,27.07
2022-09-28T14:19:02.255Z,25.97
2022-09-28T14:21:54.109Z,26.13
2022-09-28T14:24:32.769Z,26.97
2022-09-28T14:27:36.892Z,26.77
2022-09-28T14:30:18.573Z,26.53
2022-09-28T14:32:53.553Z,26.93
2022-09-28T14:35:31.167Z,25.40
2022-09-28T14:38:19.502Z,24.80
2022-09-28T14:41:10.957Z,25.13
2022-09-28T14:43:53.865Z,25.53
2022-09-28T14:46:30.785Z,26.70
2022-09-28T14:49:03.588Z,23.90
2022-09-28T14:52:02.729Z,24.53
2022-09-28T14:54:39.468Z,25.13
2022-09-28T14:57:12.683Z,25.27
2022-09-28T14:59:44.077Z,23.97
2022-09-28T15:02:17.338Z,24.03
2022-09-28T15:04:48.008Z,24.60
2022-09-28T15:07:21.340Z,23.93
2022-09-28T15:09:50.535Z,23.47
2022-09-28T15:12:19.718Z,24.47
2022-09-28T15:14:50.396Z,23.37
2022-09-28T15:17:21.738Z,24.07
2022-09-28T15:19:54.812Z,24.10
2022-09-28T15:22:22.733Z,22.93
2022-09-28T15:25:00.016Z,23.83
2022-09-28T15:27:35.294Z,22.07
2022-09-28T15:30:24.239Z,20.97
2022-09-28T15:32:53.889Z,21.97
2022-09-28T15:35:24.047Z,21.03
2022-09-28T15:37:52.244Z,21.37
2022-09-28T15:40:25.290Z,20.83
2022-09-28T15:42:57.062Z,21.63
2022-09-28T15:45:28.540Z,21.77
2022-09-28T15:48:18.268Z,21.57
2022-09-28T15:50:58.134Z,21.33
2022-09-28T15:53:25.694Z,20.53
2022-09-28T15:55:55.642Z,20.37
2022-09-28T15:58:24.461Z,20.70
2022-09-28T16:01:12.813Z,20.33
2022-09-28T16:03:40.341Z,20.40
2022-09-28T16:06:10.584Z,20.33
2022-09-28T16:08:39.689Z,20.50
2022-09-28T16:11:11.998Z,20.57
2022-09-28T16:13:47.321Z,19.80
2022-09-28T16:16:16.373Z,20.13
2022-09-28T16:18:48.281Z,21.67
2022-09-28T16:21:31.477Z,21.13
2022-09-28T16:23:59.254Z,23.47
2022-09-28T16:26:31.072Z,24.30
2022-09-28T16:28:59.023Z,24.63
2022-09-28T16:31:34.254Z,23.43
2022-09-28T16:34:11.754Z,23.73
2022-09-28T16:36:45.251Z,24.27
2022-09-28T16:39:13.426Z,22.80
2022-09-28T16:41:41.631Z,23.07
2022-09-28T16:44:15.989Z,23.70
2022-09-28T16:46:44.582Z,23.23
2022-09-28T16:49:18.613Z,23.10
2022-09-28T16:51:48.177Z,24.37
2022-09-28T16:54:35.218Z,23.57
2022-09-28T16:57:03.174Z,23.23
2022-09-28T16:59:31.125Z,24.07
2022-09-28T17:01:58.844Z,24.07
2022-09-28T17:04:26.989Z,26.80
2022-09-28T17:06:56.651Z,26.60
2022-09-28T17:09:26.329Z,25.00
2022-09-28T17:11:56.867Z,23.73
2022-09-28T17:15:19.557Z,23.63
2022-09-28T17:19:00.833Z,23.53
2022-09-28T17:22:42.386Z,22.97
2022-09-28T17:26:23.938Z,24.10
2022-09-28T17:30:05.405Z,25.30
2022-09-28T17:33:47.215Z,23.03
2022-09-28T17:37:28.941Z,25.03
2022-09-28T17:41:10.151Z,28.40
2022-09-28T17:44:51.551Z,27.70
2022-09-28T17:48:33.252Z,25.47
2022-09-28T17:52:14.622Z,24.37
2022-09-28T17:55:55.965Z,25.47
2022-09-28T17:59:37.242Z,24.40
2022-09-28T18:03:19.021Z,22.63
2022-09-28T18:06:59.774Z,21.23
2022-09-28T18:10:41.196Z,28.47
2022-09-28T18:14:22.852Z,24.33
2022-09-28T18:18:04.360Z,32.20
2022-09-28T18:21:45.717Z,27.40
2022-09-28T18:25:27.153Z,28.37
2022-09-28T18:29:08.654Z,25.70
2022-09-28T18:32:50.217Z,24.10
2022-09-28T18:36:31.886Z,21.23
2022-09-28T18:40:12.625Z,26.60
2022-09-28T18:43:53.874Z,23.30
2022-09-28T18:47:35.415Z,28.40
2022-09-28T18:51:17.149Z,29.03
2022-09-28T18:54:58.356Z,30.00
2022-09-28T18:58:39.700Z,29.17
2022-09-28T19:02:21.321Z,35.50
2022-09-28T19:06:02.177Z,33.13
2022-09-28T19:09:43.467Z,30.03
2022-09-28T19:12:40.373Z,31.53
2022-09-28T19:15:08.689Z,29.13
2022-09-28T19:17:36.061Z,33.63
2022-09-28T19:20:03.574Z,37.47
2022-09-28T19:22:31.257Z,33.50
2022-09-28T19:24:58.598Z,33.87
2022-09-28T19:27:25.964Z,30.00
2022-09-28T19:29:54.644Z,33.50
2022-09-28T19:32:21.985Z,31.63
2022-09-28T19:34:49.497Z,30.20
2022-09-28T19:37:17.028Z,29.03
2022-09-28T19:39:45.259Z,32.77
2022-09-28T19:42:12.582Z,34.67
2022-09-28T19:44:40.232Z,30.03
2022-09-28T19:47:11.461Z,30.17
2022-09-28T19:49:40.093Z,33.83
2022-09-28T19:52:13.467Z,33.53
2022-09-28T19:54:43.698Z,32.53
2022-09-28T19:57:11.524Z,27.23
2022-09-28T19:59:39.063Z,35.60
2022-09-28T20:02:09.144Z,32.43
2022-09-28T20:04:36.500Z,35.27
2022-09-28T20:07:04.171Z,33.50
2022-09-28T20:09:32.342Z,32.00
2022-09-28T20:11:59.726Z,33.90
2022-09-28T20:14:32.014Z,34.30
2022-09-28T20:17:00.325Z,35.67
2022-09-28T20:19:29.038Z,32.30
2022-09-28T20:21:58.528Z,37.53
2022-09-28T20:24:28.596Z,39.57
2022-09-28T20:26:55.954Z,36.43
2022-09-28T20:29:24.137Z,32.70
2022-09-28T20:31:51.980Z,37.57
2022-09-28T20:34:19.495Z,35.93
2022-09-28T20:36:48.269Z,34.83
2022-09-28T20:39:15.825Z,36.57
2022-09-28T20:41:43.201Z,40.83
2022-09-28T20:44:10.597Z,38.83
2022-09-28T20:46:38.529Z,41.30
2022-09-28T20:49:07.057Z,43.30
2022-09-28T20:51:34.424Z,36.30
2022-09-28T20:54:03.117Z,38.63
2022-09-28T20:56:37.386Z,34.50
2022-09-28T20:59:05.138Z,38.97
2022-09-28T21:01:32.567Z,37.77
2022-09-28T21:04:01.404Z,39.60
2022-09-28T21:06:29.970Z,37.27
2022-09-28T21:08:57.443Z,37.17
2022-09-28T21:11:27.796Z,38.00
2022-09-28T21:13:56.996Z,35.23
2022-09-28T21:16:24.876Z,40.20
2022-09-28T21:18:52.631Z,42.10
2022-09-28T21:21:21.343Z,39.13
2022-09-28T21:23:48.998Z,39.40
2022-09-28T21:26:24.562Z,41.97
2022-09-28T21:28:53.852Z,42.47
2022-09-28T21:31:26.232Z,41.80
2022-09-28T21:33:56.040Z,42.23
2022-09-28T21:36:23.581Z,38.70
2022-09-28T21:38:51.085Z,45.83
2022-09-28T21:41:18.458Z,46.03
2022-09-28T21:43:46.433Z,42.07
2022-09-28T21:46:15.153Z,43.63
2022-09-28T21:48:42.549Z,38.13
2022-09-28T21:51:14.058Z,40.60
2022-09-28T21:53:42.504Z,51.23
2022-09-28T21:56:11.700Z,40.97
2022-09-28T21:58:39.961Z,47.87
2022-09-28T22:01:09.232Z,46.27
2022-09-28T22:03:37.980Z,46.23
2022-09-28T22:06:06.444Z,44.40
2022-09-28T22:08:33.862Z,43.80
2022-09-28T22:11:02.516Z,46.47
2022-09-28T22:13:30.334Z,52.47
2022-09-28T22:15:58.665Z,40.80
2022-09-28T22:18:26.778Z,44.67
2022-09-28T22:21:01.075Z,42.73
2022-09-28T22:23:28.801Z,44.70
2022-09-28T22:26:00.217Z,45.27
2022-09-28T22:28:27.880Z,42.23
2022-09-28T22:30:55.581Z,41.67
2022-09-28T22:33:22.933Z,43.70
2022-09-28T22:35:51.230Z,38.37
2022-09-28T22:38:20.745Z,43.97
2022-09-28T22:40:49.076Z,41.03
2022-09-28T22:43:16.776Z,41.70
2022-09-28T22:45:44.169Z,39.30
2022-09-28T22:48:11.720Z,38.23
2022-09-28T22:50:39.284Z,43.03
2022-09-28T22:53:06.923Z,44.67
2022-09-28T22:55:35.558Z,45.60
2022-09-28T22:58:02.907Z,45.13
2022-09-28T23:00:31.006Z,49.07
2022-09-28T23:02:58.397Z,44.93
2022-09-28T23:05:25.806Z,41.87
2022-09-28T23:07:53.166Z,44.20
2022-09-28T23:10:20.540Z,44.13
2022-09-28T23:12:49.454Z,47.73
2022-09-28T23:15:17.049Z,43.30
2022-09-28T23:17:44.381Z,43.83
2022-09-28T23:20:11.794Z,42.23
2022-09-28T23:22:39.149Z,43.13
2022-09-28T23:25:07.555Z,37.17
2022-09-28T23:27:34.882Z,40.13
2022-09-28T23:30:03.678Z,36.67
2022-09-28T23:32:32.150Z,41.23
2022-09-28T23:34:59.606Z,39.90
2022-09-28T23:37:26.919Z,40.13
2022-09-28T23:39:54.254Z,37.30
2022-09-28T23:42:21.671Z,42.67
2022-09-28T23:44:49.076Z,39.03
2022-09-28T23:47:17.778Z,33.00
2022-09-28T23:49:45.145Z,32.03
2022-09-28T23:52:12.447Z,32.37
2022-09-28T23:54:39.791Z,32.23
2022-09-28T23:57:07.149Z,28.73
2022-09-28T23:59:34.488Z,28.90
